sensor_id;sensor_type;location;lat;lon;timestamp;temperature;humidity
80218;DHT22;69533;37.974;23.708;2023-05-28T00:02:02;26.00;39.10
80218;DHT22;69533;37.974;23.708;2023-05-28T00:04:28;26.00;39.00
80218;DHT22;69533;37.974;23.708;2023-05-28T00:06:54;25.90;38.90
80218;DHT22;69533;37.974;23.708;2023-05-28T00:09:21;26.00;40.10
80218;DHT22;69533;37.974;23.708;2023-05-28T00:11:47;25.90;39.10
80218;DHT22;69533;37.974;23.708;2023-05-28T00:14:13;26.00;39.10
80218;DHT22;69533;37.974;23.708;2023-05-28T00:16:39;25.90;39.10
80218;DHT22;69533;37.974;23.708;2023-05-28T00:19:06;25.90;39.00
80218;DHT22;69533;37.974;23.708;2023-05-28T00:21:32;25.90;39.10
80218;DHT22;69533;37.974;23.708;2023-05-28T00:23:59;25.90;39.10
80218;DHT22;69533;37.974;23.708;2023-05-28T00:26:25;25.90;39.20
80218;DHT22;69533;37.974;23.708;2023-05-28T00:28:53;25.90;39.20
80218;DHT22;69533;37.974;23.708;2023-05-28T00:31:19;25.90;39.10
80218;DHT22;69533;37.974;23.708;2023-05-28T00:33:45;25.90;39.20
80218;DHT22;69533;37.974;23.708;2023-05-28T00:36:14;25.90;39.20
80218;DHT22;69533;37.974;23.708;2023-05-28T00:38:40;25.90;39.20
80218;DHT22;69533;37.974;23.708;2023-05-28T00:41:06;25.90;39.20
80218;DHT22;69533;37.974;23.708;2023-05-28T00:43:32;25.80;39.20
80218;DHT22;69533;37.974;23.708;2023-05-28T00:46:00;25.80;39.20
80218;DHT22;69533;37.974;23.708;2023-05-28T00:48:29;25.80;39.20
80218;DHT22;69533;37.974;23.708;2023-05-28T00:50:57;25.80;39.20
80218;DHT22;69533;37.974;23.708;2023-05-28T00:53:24;25.80;39.20
80218;DHT22;69533;37.974;23.708;2023-05-28T00:55:50;25.90;39.30
80218;DHT22;69533;37.974;23.708;2023-05-28T00:58:17;25.80;39.30
80218;DHT22;69533;37.974;23.708;2023-05-28T01:00:45;25.80;39.30
80218;DHT22;69533;37.974;23.708;2023-05-28T01:03:14;25.80;39.30
80218;DHT22;69533;37.974;23.708;2023-05-28T01:05:40;25.80;39.40
80218;DHT22;69533;37.974;23.708;2023-05-28T01:08:06;25.80;39.50
80218;DHT22;69533;37.974;23.708;2023-05-28T01:10:33;25.80;39.40
80218;DHT22;69533;37.974;23.708;2023-05-28T01:13:02;25.80;39.50
80218;DHT22;69533;37.974;23.708;2023-05-28T01:15:29;25.80;39.50
80218;DHT22;69533;37.974;23.708;2023-05-28T01:17:59;25.80;39.50
80218;DHT22;69533;37.974;23.708;2023-05-28T01:20:30;25.70;39.50
80218;DHT22;69533;37.974;23.708;2023-05-28T01:23:00;25.70;39.50
80218;DHT22;69533;37.974;23.708;2023-05-28T01:25:29;25.70;39.50
80218;DHT22;69533;37.974;23.708;2023-05-28T01:27:55;25.70;39.60
80218;DHT22;69533;37.974;23.708;2023-05-28T01:30:21;25.70;39.60
80218;DHT22;69533;37.974;23.708;2023-05-28T01:32:47;25.70;39.60
80218;DHT22;69533;37.974;23.708;2023-05-28T01:35:13;25.70;39.60
80218;DHT22;69533;37.974;23.708;2023-05-28T01:37:46;25.70;39.60
80218;DHT22;69533;37.974;23.708;2023-05-28T01:40:14;25.70;39.80
80218;DHT22;69533;37.974;23.708;2023-05-28T01:42:42;25.70;39.70
80218;DHT22;69533;37.974;23.708;2023-05-28T01:45:10;25.70;39.80
80218;DHT22;69533;37.974;23.708;2023-05-28T01:47:36;25.70;39.80
80218;DHT22;69533;37.974;23.708;2023-05-28T01:50:02;25.70;39.80
80218;DHT22;69533;37.974;23.708;2023-05-28T01:52:28;25.70;39.90
80218;DHT22;69533;37.974;23.708;2023-05-28T01:54:54;25.70;39.90
80218;DHT22;69533;37.974;23.708;2023-05-28T01:57:20;25.70;40.00
80218;DHT22;69533;37.974;23.708;2023-05-28T01:59:45;25.70;40.00
80218;DHT22;69533;37.974;23.708;2023-05-28T02:02:11;25.70;40.10
80218;DHT22;69533;37.974;23.708;2023-05-28T02:04:37;25.70;40.20
80218;DHT22;69533;37.974;23.708;2023-05-28T02:07:03;25.70;40.20
80218;DHT22;69533;37.974;23.708;2023-05-28T02:09:28;25.70;40.30
80218;DHT22;69533;37.974;23.708;2023-05-28T02:11:54;25.70;40.30
80218;DHT22;69533;37.974;23.708;2023-05-28T02:14:21;25.60;40.40
80218;DHT22;69533;37.974;23.708;2023-05-28T02:16:47;25.70;40.60
80218;DHT22;69533;37.974;23.708;2023-05-28T02:19:18;25.60;40.50
80218;DHT22;69533;37.974;23.708;2023-05-28T02:21:44;25.60;40.60
80218;DHT22;69533;37.974;23.708;2023-05-28T02:24:10;25.60;40.50
80218;DHT22;69533;37.974;23.708;2023-05-28T02:26:36;25.70;40.60
80218;DHT22;69533;37.974;23.708;2023-05-28T02:29:02;25.70;40.60
80218;DHT22;69533;37.974;23.708;2023-05-28T02:31:28;25.70;40.70
80218;DHT22;69533;37.974;23.708;2023-05-28T02:33:53;25.60;40.70
80218;DHT22;69533;37.974;23.708;2023-05-28T02:36:19;25.60;40.80
80218;DHT22;69533;37.974;23.708;2023-05-28T02:38:46;25.60;40.80
80218;DHT22;69533;37.974;23.708;2023-05-28T02:41:12;25.60;40.90
80218;DHT22;69533;37.974;23.708;2023-05-28T02:43:38;25.70;40.90
80218;DHT22;69533;37.974;23.708;2023-05-28T02:46:04;25.60;40.90
80218;DHT22;69533;37.974;23.708;2023-05-28T02:48:29;25.60;41.00
80218;DHT22;69533;37.974;23.708;2023-05-28T02:50:56;25.60;40.90
80218;DHT22;69533;37.974;23.708;2023-05-28T02:53:22;25.60;40.90
80218;DHT22;69533;37.974;23.708;2023-05-28T02:55:48;25.60;40.90
80218;DHT22;69533;37.974;23.708;2023-05-28T02:58:15;25.60;41.00
80218;DHT22;69533;37.974;23.708;2023-05-28T03:00:41;25.60;41.00
80218;DHT22;69533;37.974;23.708;2023-05-28T03:03:07;25.60;41.00
80218;DHT22;69533;37.974;23.708;2023-05-28T03:05:33;25.70;41.10
80218;DHT22;69533;37.974;23.708;2023-05-28T03:07:59;25.60;41.00
80218;DHT22;69533;37.974;23.708;2023-05-28T03:10:25;25.60;41.10
80218;DHT22;69533;37.974;23.708;2023-05-28T03:12:50;25.60;41.10
80218;DHT22;69533;37.974;23.708;2023-05-28T03:15:16;25.60;41.30
80218;DHT22;69533;37.974;23.708;2023-05-28T03:17:42;25.60;41.20
80218;DHT22;69533;37.974;23.708;2023-05-28T03:20:08;25.60;41.20
80218;DHT22;69533;37.974;23.708;2023-05-28T03:22:36;25.60;41.20
80218;DHT22;69533;37.974;23.708;2023-05-28T03:25:05;25.60;41.20
80218;DHT22;69533;37.974;23.708;2023-05-28T03:27:32;25.60;41.20
80218;DHT22;69533;37.974;23.708;2023-05-28T03:29:58;25.70;41.20
80218;DHT22;69533;37.974;23.708;2023-05-28T03:32:24;25.60;41.10
80218;DHT22;69533;37.974;23.708;2023-05-28T03:34:49;25.60;41.10
80218;DHT22;69533;37.974;23.708;2023-05-28T03:37:15;25.60;41.10
80218;DHT22;69533;37.974;23.708;2023-05-28T03:39:41;25.70;41.30
80218;DHT22;69533;37.974;23.708;2023-05-28T03:42:07;25.70;41.20
80218;DHT22;69533;37.974;23.708;2023-05-28T03:44:33;25.70;41.10
80218;DHT22;69533;37.974;23.708;2023-05-28T03:47:00;25.70;41.10
80218;DHT22;69533;37.974;23.708;2023-05-28T03:49:25;25.80;41.10
80218;DHT22;69533;37.974;23.708;2023-05-28T03:51:51;25.80;41.10
80218;DHT22;69533;37.974;23.708;2023-05-28T03:54:17;25.90;41.10
80218;DHT22;69533;37.974;23.708;2023-05-28T03:56:42;25.90;41.00
80218;DHT22;69533;37.974;23.708;2023-05-28T03:59:08;26.00;41.00
80218;DHT22;69533;37.974;23.708;2023-05-28T04:01:34;26.00;41.10
80218;DHT22;69533;37.974;23.708;2023-05-28T04:04:01;26.10;40.90
80218;DHT22;69533;37.974;23.708;2023-05-28T04:06:27;26.20;40.80
80218;DHT22;69533;37.974;23.708;2023-05-28T04:08:53;26.20;40.70
80218;DHT22;69533;37.974;23.708;2023-05-28T04:11:18;26.20;40.70
80218;DHT22;69533;37.974;23.708;2023-05-28T04:13:47;26.20;40.60
80218;DHT22;69533;37.974;23.708;2023-05-28T04:16:13;26.30;40.50
80218;DHT22;69533;37.974;23.708;2023-05-28T04:18:39;26.40;40.50
80218;DHT22;69533;37.974;23.708;2023-05-28T04:21:05;26.50;40.40
80218;DHT22;69533;37.974;23.708;2023-05-28T04:23:32;26.50;40.20
80218;DHT22;69533;37.974;23.708;2023-05-28T04:25:58;26.50;40.10
80218;DHT22;69533;37.974;23.708;2023-05-28T04:28:24;26.60;40.00
80218;DHT22;69533;37.974;23.708;2023-05-28T04:30:54;26.60;40.00
80218;DHT22;69533;37.974;23.708;2023-05-28T04:33:20;26.70;39.90
80218;DHT22;69533;37.974;23.708;2023-05-28T04:35:49;26.70;39.80
80218;DHT22;69533;37.974;23.708;2023-05-28T04:38:16;26.80;39.80
80218;DHT22;69533;37.974;23.708;2023-05-28T04:40:42;26.80;39.60
80218;DHT22;69533;37.974;23.708;2023-05-28T04:43:08;26.90;40.60
80218;DHT22;69533;37.974;23.708;2023-05-28T04:45:34;26.90;39.50
80218;DHT22;69533;37.974;23.708;2023-05-28T04:48:00;27.00;39.50
80218;DHT22;69533;37.974;23.708;2023-05-28T04:50:27;27.10;39.40
80218;DHT22;69533;37.974;23.708;2023-05-28T04:52:53;27.20;39.30
80218;DHT22;69533;37.974;23.708;2023-05-28T04:55:18;27.20;39.20
80218;DHT22;69533;37.974;23.708;2023-05-28T04:57:44;27.30;39.20
80218;DHT22;69533;37.974;23.708;2023-05-28T05:00:10;27.40;39.10
80218;DHT22;69533;37.974;23.708;2023-05-28T05:02:39;27.40;39.00
80218;DHT22;69533;37.974;23.708;2023-05-28T05:05:08;27.60;39.00
80218;DHT22;69533;37.974;23.708;2023-05-28T05:07:37;27.60;38.90
80218;DHT22;69533;37.974;23.708;2023-05-28T05:10:12;27.70;38.90
80218;DHT22;69533;37.974;23.708;2023-05-28T05:12:38;27.80;38.80
80218;DHT22;69533;37.974;23.708;2023-05-28T05:15:05;27.90;38.60
80218;DHT22;69533;37.974;23.708;2023-05-28T05:17:31;28.00;38.40
80218;DHT22;69533;37.974;23.708;2023-05-28T05:19:58;28.10;38.30
80218;DHT22;69533;37.974;23.708;2023-05-28T05:22:24;28.20;38.10
80218;DHT22;69533;37.974;23.708;2023-05-28T05:24:49;28.30;37.90
80218;DHT22;69533;37.974;23.708;2023-05-28T05:27:16;28.40;37.80
80218;DHT22;69533;37.974;23.708;2023-05-28T05:29:41;28.50;37.70
80218;DHT22;69533;37.974;23.708;2023-05-28T05:32:09;28.60;37.50
80218;DHT22;69533;37.974;23.708;2023-05-28T05:34:36;28.70;37.40
80218;DHT22;69533;37.974;23.708;2023-05-28T05:37:02;28.80;37.30
80218;DHT22;69533;37.974;23.708;2023-05-28T05:39:27;28.90;37.20
80218;DHT22;69533;37.974;23.708;2023-05-28T05:41:54;29.00;37.90
80218;DHT22;69533;37.974;23.708;2023-05-28T05:44:20;29.10;36.80
80218;DHT22;69533;37.974;23.708;2023-05-28T05:46:46;29.20;36.60
80218;DHT22;69533;37.974;23.708;2023-05-28T05:49:12;29.30;36.40
80218;DHT22;69533;37.974;23.708;2023-05-28T05:51:37;29.40;36.30
80218;DHT22;69533;37.974;23.708;2023-05-28T05:54:04;29.60;36.10
80218;DHT22;69533;37.974;23.708;2023-05-28T05:56:29;29.70;36.00
80218;DHT22;69533;37.974;23.708;2023-05-28T05:58:57;29.80;35.70
80218;DHT22;69533;37.974;23.708;2023-05-28T06:01:22;29.90;35.50
80218;DHT22;69533;37.974;23.708;2023-05-28T06:03:48;30.00;35.20
80218;DHT22;69533;37.974;23.708;2023-05-28T06:06:14;30.10;35.00
80218;DHT22;69533;37.974;23.708;2023-05-28T06:08:40;30.10;34.90
80218;DHT22;69533;37.974;23.708;2023-05-28T06:11:05;30.10;35.10
80218;DHT22;69533;37.974;23.708;2023-05-28T06:13:31;30.00;35.00
80218;DHT22;69533;37.974;23.708;2023-05-28T06:15:57;30.10;35.00
80218;DHT22;69533;37.974;23.708;2023-05-28T06:18:25;30.20;34.70
80218;DHT22;69533;37.974;23.708;2023-05-28T06:20:51;30.40;34.60
80218;DHT22;69533;37.974;23.708;2023-05-28T06:23:17;30.40;34.10
80218;DHT22;69533;37.974;23.708;2023-05-28T06:25:43;30.60;33.90
80218;DHT22;69533;37.974;23.708;2023-05-28T06:28:09;30.70;33.70
80218;DHT22;69533;37.974;23.708;2023-05-28T06:30:35;30.80;33.60
80218;DHT22;69533;37.974;23.708;2023-05-28T06:33:01;30.90;33.40
80218;DHT22;69533;37.974;23.708;2023-05-28T06:35:27;30.90;33.40
80218;DHT22;69533;37.974;23.708;2023-05-28T06:37:53;30.80;33.40
80218;DHT22;69533;37.974;23.708;2023-05-28T06:40:18;30.90;33.40
80218;DHT22;69533;37.974;23.708;2023-05-28T06:42:44;30.90;33.30
80218;DHT22;69533;37.974;23.708;2023-05-28T06:45:10;30.80;33.50
80218;DHT22;69533;37.974;23.708;2023-05-28T06:47:36;30.80;33.60
80218;DHT22;69533;37.974;23.708;2023-05-28T06:50:03;30.80;33.50
80218;DHT22;69533;37.974;23.708;2023-05-28T06:52:28;30.90;33.50
80218;DHT22;69533;37.974;23.708;2023-05-28T06:54:54;31.00;33.30
80218;DHT22;69533;37.974;23.708;2023-05-28T06:57:21;31.00;33.30
80218;DHT22;69533;37.974;23.708;2023-05-28T06:59:46;31.10;33.30
80218;DHT22;69533;37.974;23.708;2023-05-28T07:02:12;31.20;33.20
80218;DHT22;69533;37.974;23.708;2023-05-28T07:04:38;31.20;33.00
80218;DHT22;69533;37.974;23.708;2023-05-28T07:07:04;31.30;32.80
80218;DHT22;69533;37.974;23.708;2023-05-28T07:09:30;31.30;32.80
80218;DHT22;69533;37.974;23.708;2023-05-28T07:11:56;31.40;32.60
80218;DHT22;69533;37.974;23.708;2023-05-28T07:14:22;31.50;32.50
80218;DHT22;69533;37.974;23.708;2023-05-28T07:16:48;31.50;32.20
80218;DHT22;69533;37.974;23.708;2023-05-28T07:19:14;31.60;32.20
80218;DHT22;69533;37.974;23.708;2023-05-28T07:21:40;31.60;32.00
80218;DHT22;69533;37.974;23.708;2023-05-28T07:24:05;31.60;32.00
80218;DHT22;69533;37.974;23.708;2023-05-28T07:26:32;31.60;31.80
80218;DHT22;69533;37.974;23.708;2023-05-28T07:28:58;31.70;32.70
80218;DHT22;69533;37.974;23.708;2023-05-28T07:31:25;31.60;31.60
80218;DHT22;69533;37.974;23.708;2023-05-28T07:33:51;31.60;31.60
80218;DHT22;69533;37.974;23.708;2023-05-28T07:36:16;31.50;31.60
80218;DHT22;69533;37.974;23.708;2023-05-28T07:38:43;31.40;31.80
80218;DHT22;69533;37.974;23.708;2023-05-28T07:41:08;31.20;32.10
80218;DHT22;69533;37.974;23.708;2023-05-28T07:43:34;31.00;32.30
80218;DHT22;69533;37.974;23.708;2023-05-28T07:46:00;30.80;32.50
80218;DHT22;69533;37.974;23.708;2023-05-28T07:48:25;30.70;32.70
80218;DHT22;69533;37.974;23.708;2023-05-28T07:50:52;30.60;32.80
80218;DHT22;69533;37.974;23.708;2023-05-28T07:53:17;30.40;32.90
80218;DHT22;69533;37.974;23.708;2023-05-28T07:55:44;30.40;33.20
80218;DHT22;69533;37.974;23.708;2023-05-28T07:58:10;30.30;33.20
80218;DHT22;69533;37.974;23.708;2023-05-28T08:00:38;30.30;33.20
80218;DHT22;69533;37.974;23.708;2023-05-28T08:03:05;30.30;33.10
80218;DHT22;69533;37.974;23.708;2023-05-28T08:05:31;30.10;34.00
80218;DHT22;69533;37.974;23.708;2023-05-28T08:07:57;30.10;33.10
80218;DHT22;69533;37.974;23.708;2023-05-28T08:10:22;30.10;33.30
80218;DHT22;69533;37.974;23.708;2023-05-28T08:12:49;30.00;33.30
80218;DHT22;69533;37.974;23.708;2023-05-28T08:15:14;30.00;33.40
80218;DHT22;69533;37.974;23.708;2023-05-28T08:17:40;30.00;34.40
80218;DHT22;69533;37.974;23.708;2023-05-28T08:20:07;30.00;34.20
80218;DHT22;69533;37.974;23.708;2023-05-28T08:22:37;30.00;33.20
80218;DHT22;69533;37.974;23.708;2023-05-28T08:25:03;29.90;33.00
80218;DHT22;69533;37.974;23.708;2023-05-28T08:27:30;29.90;32.90
80218;DHT22;69533;37.974;23.708;2023-05-28T08:29:56;29.80;33.00
80218;DHT22;69533;37.974;23.708;2023-05-28T08:32:21;29.80;33.00
80218;DHT22;69533;37.974;23.708;2023-05-28T08:34:47;29.70;33.10
80218;DHT22;69533;37.974;23.708;2023-05-28T08:37:13;29.70;33.20
80218;DHT22;69533;37.974;23.708;2023-05-28T08:39:39;29.70;33.20
80218;DHT22;69533;37.974;23.708;2023-05-28T08:42:05;29.60;33.40
80218;DHT22;69533;37.974;23.708;2023-05-28T08:44:31;29.50;33.50
80218;DHT22;69533;37.974;23.708;2023-05-28T08:46:57;29.50;33.80
80218;DHT22;69533;37.974;23.708;2023-05-28T08:49:47;29.40;33.90
80218;DHT22;69533;37.974;23.708;2023-05-28T08:52:14;29.40;33.90
80218;DHT22;69533;37.974;23.708;2023-05-28T08:54:41;29.40;33.70
80218;DHT22;69533;37.974;23.708;2023-05-28T08:57:09;29.40;33.70
80218;DHT22;69533;37.974;23.708;2023-05-28T08:59:35;29.40;33.70
80218;DHT22;69533;37.974;23.708;2023-05-28T09:02:03;29.40;33.70
80218;DHT22;69533;37.974;23.708;2023-05-28T09:04:28;29.40;33.70
80218;DHT22;69533;37.974;23.708;2023-05-28T09:06:54;29.40;33.80
80218;DHT22;69533;37.974;23.708;2023-05-28T09:09:20;29.40;34.00
80218;DHT22;69533;37.974;23.708;2023-05-28T09:11:46;29.40;34.10
80218;DHT22;69533;37.974;23.708;2023-05-28T09:14:13;29.30;34.40
80218;DHT22;69533;37.974;23.708;2023-05-28T09:16:41;29.20;34.70
80218;DHT22;69533;37.974;23.708;2023-05-28T09:19:07;29.30;34.80
80218;DHT22;69533;37.974;23.708;2023-05-28T09:21:33;29.20;34.70
80218;DHT22;69533;37.974;23.708;2023-05-28T09:23:59;29.20;34.80
80218;DHT22;69533;37.974;23.708;2023-05-28T09:26:32;29.20;34.80
80218;DHT22;69533;37.974;23.708;2023-05-28T09:28:59;29.20;34.80
80218;DHT22;69533;37.974;23.708;2023-05-28T09:31:29;29.20;34.80
80218;DHT22;69533;37.974;23.708;2023-05-28T09:33:59;29.20;34.80
80218;DHT22;69533;37.974;23.708;2023-05-28T09:36:25;29.20;34.80
80218;DHT22;69533;37.974;23.708;2023-05-28T09:38:51;29.20;34.80
80218;DHT22;69533;37.974;23.708;2023-05-28T09:41:21;29.10;34.90
80218;DHT22;69533;37.974;23.708;2023-05-28T09:43:59;29.10;35.20
80218;DHT22;69533;37.974;23.708;2023-05-28T09:46:34;29.00;35.60
80218;DHT22;69533;37.974;23.708;2023-05-28T09:49:03;28.90;35.70
80218;DHT22;69533;37.974;23.708;2023-05-28T09:51:30;28.90;35.80
80218;DHT22;69533;37.974;23.708;2023-05-28T09:54:04;28.90;35.80
80218;DHT22;69533;37.974;23.708;2023-05-28T09:56:32;28.90;35.80
80218;DHT22;69533;37.974;23.708;2023-05-28T09:59:02;28.90;35.80
80218;DHT22;69533;37.974;23.708;2023-05-28T10:01:36;28.80;35.90
80218;DHT22;69533;37.974;23.708;2023-05-28T10:04:08;28.80;36.00
80218;DHT22;69533;37.974;23.708;2023-05-28T10:06:39;28.80;36.10
80218;DHT22;69533;37.974;23.708;2023-05-28T10:09:09;28.80;36.10
80218;DHT22;69533;37.974;23.708;2023-05-28T10:11:50;28.70;35.90
80218;DHT22;69533;37.974;23.708;2023-05-28T10:14:18;28.70;35.90
80218;DHT22;69533;37.974;23.708;2023-05-28T10:16:44;28.80;35.90
80218;DHT22;69533;37.974;23.708;2023-05-28T10:19:11;28.80;35.70
80218;DHT22;69533;37.974;23.708;2023-05-28T10:21:37;28.80;35.60
80218;DHT22;69533;37.974;23.708;2023-05-28T10:24:03;28.80;35.40
80218;DHT22;69533;37.974;23.708;2023-05-28T10:26:30;28.80;35.40
80218;DHT22;69533;37.974;23.708;2023-05-28T10:28:56;28.70;35.40
80218;DHT22;69533;37.974;23.708;2023-05-28T10:31:23;28.70;35.40
80218;DHT22;69533;37.974;23.708;2023-05-28T10:33:49;28.70;35.40
80218;DHT22;69533;37.974;23.708;2023-05-28T10:36:16;28.70;35.70
80218;DHT22;69533;37.974;23.708;2023-05-28T10:39:03;28.70;35.90
80218;DHT22;69533;37.974;23.708;2023-05-28T10:41:33;28.70;36.10
80218;DHT22;69533;37.974;23.708;2023-05-28T10:44:06;28.60;36.10
80218;DHT22;69533;37.974;23.708;2023-05-28T10:46:37;28.70;36.10
80218;DHT22;69533;37.974;23.708;2023-05-28T10:49:10;28.70;36.10
80218;DHT22;69533;37.974;23.708;2023-05-28T10:54:16;28.70;36.10
80218;DHT22;69533;37.974;23.708;2023-05-28T10:57:15;28.70;36.20
80218;DHT22;69533;37.974;23.708;2023-05-28T10:59:46;28.60;36.20
80218;DHT22;69533;37.974;23.708;2023-05-28T11:02:17;28.60;36.30
80218;DHT22;69533;37.974;23.708;2023-05-28T11:04:43;28.50;36.20
80218;DHT22;69533;37.974;23.708;2023-05-28T11:07:09;28.50;36.20
80218;DHT22;69533;37.974;23.708;2023-05-28T11:09:35;28.50;36.20
80218;DHT22;69533;37.974;23.708;2023-05-28T11:12:01;28.50;36.20
80218;DHT22;69533;37.974;23.708;2023-05-28T11:17:00;28.40;36.10
80218;DHT22;69533;37.974;23.708;2023-05-28T11:19:26;28.40;36.10
80218;DHT22;69533;37.974;23.708;2023-05-28T11:21:53;28.40;36.10
80218;DHT22;69533;37.974;23.708;2023-05-28T11:24:19;28.40;36.10
80218;DHT22;69533;37.974;23.708;2023-05-28T11:26:45;28.30;36.10
80218;DHT22;69533;37.974;23.708;2023-05-28T11:29:12;28.30;36.20
80218;DHT22;69533;37.974;23.708;2023-05-28T11:31:41;28.30;36.30
80218;DHT22;69533;37.974;23.708;2023-05-28T11:34:08;28.20;36.10
80218;DHT22;69533;37.974;23.708;2023-05-28T11:36:52;28.30;36.00
80218;DHT22;69533;37.974;23.708;2023-05-28T11:39:18;28.30;35.90
80218;DHT22;69533;37.974;23.708;2023-05-28T11:41:45;28.30;35.80
80218;DHT22;69533;37.974;23.708;2023-05-28T11:44:23;28.30;35.60
80218;DHT22;69533;37.974;23.708;2023-05-28T11:46:55;28.40;35.40
80218;DHT22;69533;37.974;23.708;2023-05-28T11:49:22;28.40;35.40
80218;DHT22;69533;37.974;23.708;2023-05-28T11:51:52;28.40;35.30
80218;DHT22;69533;37.974;23.708;2023-05-28T11:54:18;28.40;35.30
80218;DHT22;69533;37.974;23.708;2023-05-28T11:56:43;28.40;35.20
80218;DHT22;69533;37.974;23.708;2023-05-28T11:59:12;28.40;35.10
80218;DHT22;69533;37.974;23.708;2023-05-28T12:01:38;28.30;35.00
80218;DHT22;69533;37.974;23.708;2023-05-28T12:04:07;28.30;35.10
80218;DHT22;69533;37.974;23.708;2023-05-28T12:06:33;28.20;35.10
80218;DHT22;69533;37.974;23.708;2023-05-28T12:09:05;28.20;35.00
80218;DHT22;69533;37.974;23.708;2023-05-28T12:11:31;28.20;34.90
80218;DHT22;69533;37.974;23.708;2023-05-28T12:13:57;28.20;34.80
80218;DHT22;69533;37.974;23.708;2023-05-28T12:16:25;28.20;34.70
80218;DHT22;69533;37.974;23.708;2023-05-28T12:18:51;28.20;34.70
80218;DHT22;69533;37.974;23.708;2023-05-28T12:21:17;28.20;34.70
80218;DHT22;69533;37.974;23.708;2023-05-28T12:23:46;28.10;34.60
80218;DHT22;69533;37.974;23.708;2023-05-28T12:26:14;28.10;34.60
80218;DHT22;69533;37.974;23.708;2023-05-28T12:28:40;28.10;34.60
80218;DHT22;69533;37.974;23.708;2023-05-28T12:31:07;28.10;34.60
80218;DHT22;69533;37.974;23.708;2023-05-28T12:33:34;28.10;34.40
80218;DHT22;69533;37.974;23.708;2023-05-28T12:36:00;28.10;34.30
80218;DHT22;69533;37.974;23.708;2023-05-28T12:38:26;28.10;34.30
80218;DHT22;69533;37.974;23.708;2023-05-28T12:40:52;28.00;34.20
80218;DHT22;69533;37.974;23.708;2023-05-28T12:43:18;28.00;34.20
80218;DHT22;69533;37.974;23.708;2023-05-28T12:45:45;28.00;34.20
80218;DHT22;69533;37.974;23.708;2023-05-28T12:48:11;28.00;34.20
80218;DHT22;69533;37.974;23.708;2023-05-28T12:50:37;28.00;34.10
80218;DHT22;69533;37.974;23.708;2023-05-28T12:53:03;28.00;33.90
80218;DHT22;69533;37.974;23.708;2023-05-28T12:55:30;28.00;34.00
80218;DHT22;69533;37.974;23.708;2023-05-28T12:57:56;28.00;33.80
80218;DHT22;69533;37.974;23.708;2023-05-28T13:00:22;28.00;33.80
80218;DHT22;69533;37.974;23.708;2023-05-28T13:02:50;28.00;33.50
80218;DHT22;69533;37.974;23.708;2023-05-28T13:05:15;28.00;33.50
80218;DHT22;69533;37.974;23.708;2023-05-28T13:07:42;28.00;33.40
80218;DHT22;69533;37.974;23.708;2023-05-28T13:10:10;28.00;33.40
80218;DHT22;69533;37.974;23.708;2023-05-28T13:12:36;28.00;33.50
80218;DHT22;69533;37.974;23.708;2023-05-28T13:15:06;28.00;33.50
80218;DHT22;69533;37.974;23.708;2023-05-28T13:17:33;28.00;33.50
80218;DHT22;69533;37.974;23.708;2023-05-28T13:19:59;27.90;33.30
80218;DHT22;69533;37.974;23.708;2023-05-28T13:22:25;27.90;33.40
80218;DHT22;69533;37.974;23.708;2023-05-28T13:24:51;27.90;33.40
80218;DHT22;69533;37.974;23.708;2023-05-28T13:27:16;27.90;33.30
80218;DHT22;69533;37.974;23.708;2023-05-28T13:29:43;27.90;33.30
80218;DHT22;69533;37.974;23.708;2023-05-28T13:32:08;27.90;33.20
80218;DHT22;69533;37.974;23.708;2023-05-28T13:34:34;27.90;33.20
80218;DHT22;69533;37.974;23.708;2023-05-28T13:37:00;27.90;33.10
80218;DHT22;69533;37.974;23.708;2023-05-28T13:39:26;27.80;33.10
80218;DHT22;69533;37.974;23.708;2023-05-28T13:41:52;27.90;33.10
80218;DHT22;69533;37.974;23.708;2023-05-28T13:44:18;27.90;33.10
80218;DHT22;69533;37.974;23.708;2023-05-28T13:46:44;27.90;33.10
80218;DHT22;69533;37.974;23.708;2023-05-28T13:49:10;27.90;33.10
80218;DHT22;69533;37.974;23.708;2023-05-28T13:51:36;27.90;33.10
80218;DHT22;69533;37.974;23.708;2023-05-28T13:54:05;27.90;33.10
80218;DHT22;69533;37.974;23.708;2023-05-28T13:56:30;27.90;33.10
80218;DHT22;69533;37.974;23.708;2023-05-28T13:58:56;27.80;32.90
80218;DHT22;69533;37.974;23.708;2023-05-28T14:01:21;27.80;32.90
80218;DHT22;69533;37.974;23.708;2023-05-28T14:03:47;27.80;33.00
80218;DHT22;69533;37.974;23.708;2023-05-28T14:06:13;27.80;32.90
80218;DHT22;69533;37.974;23.708;2023-05-28T14:08:39;27.80;32.90
80218;DHT22;69533;37.974;23.708;2023-05-28T14:11:04;27.80;33.00
80218;DHT22;69533;37.974;23.708;2023-05-28T14:13:30;27.80;33.00
80218;DHT22;69533;37.974;23.708;2023-05-28T14:15:59;27.80;33.00
80218;DHT22;69533;37.974;23.708;2023-05-28T14:18:25;27.80;33.00
80218;DHT22;69533;37.974;23.708;2023-05-28T14:20:51;27.80;33.00
80218;DHT22;69533;37.974;23.708;2023-05-28T14:23:17;27.80;33.10
80218;DHT22;69533;37.974;23.708;2023-05-28T14:25:43;27.80;33.10
80218;DHT22;69533;37.974;23.708;2023-05-28T14:28:08;27.80;33.10
80218;DHT22;69533;37.974;23.708;2023-05-28T14:30:34;27.80;33.10
80218;DHT22;69533;37.974;23.708;2023-05-28T14:33:00;27.80;33.10
80218;DHT22;69533;37.974;23.708;2023-05-28T14:35:25;27.70;33.00
80218;DHT22;69533;37.974;23.708;2023-05-28T14:37:51;27.70;33.00
80218;DHT22;69533;37.974;23.708;2023-05-28T14:40:20;27.70;33.10
80218;DHT22;69533;37.974;23.708;2023-05-28T14:42:47;27.70;33.10
80218;DHT22;69533;37.974;23.708;2023-05-28T14:45:13;27.70;33.00
80218;DHT22;69533;37.974;23.708;2023-05-28T14:47:39;27.80;33.10
80218;DHT22;69533;37.974;23.708;2023-05-28T14:50:06;27.80;33.00
80218;DHT22;69533;37.974;23.708;2023-05-28T14:52:32;27.80;33.10
80218;DHT22;69533;37.974;23.708;2023-05-28T14:54:59;27.70;33.00
80218;DHT22;69533;37.974;23.708;2023-05-28T14:57:27;27.70;33.10
80218;DHT22;69533;37.974;23.708;2023-05-28T14:59:58;27.70;33.00
80218;DHT22;69533;37.974;23.708;2023-05-28T15:02:24;27.70;33.10
80218;DHT22;69533;37.974;23.708;2023-05-28T15:04:50;27.70;33.00
80218;DHT22;69533;37.974;23.708;2023-05-28T15:07:15;27.70;33.10
80218;DHT22;69533;37.974;23.708;2023-05-28T15:09:41;27.70;33.10
80218;DHT22;69533;37.974;23.708;2023-05-28T15:12:07;27.70;33.30
80218;DHT22;69533;37.974;23.708;2023-05-28T15:14:33;27.70;33.40
80218;DHT22;69533;37.974;23.708;2023-05-28T15:16:59;27.70;33.40
80218;DHT22;69533;37.974;23.708;2023-05-28T15:19:25;27.70;33.40